sensor_id;sensor_type;location;lat;lon;timestamp;temperature;humidity
13426;DHT22;6785;57.918;12.530;2023-05-20T00:00:48;8.30;99.90
13426;DHT22;6785;57.918;12.530;2023-05-20T00:03:14;8.30;99.90
13426;DHT22;6785;57.918;12.530;2023-05-20T00:05:41;8.20;99.90
13426;DHT22;6785;57.918;12.530;2023-05-20T00:08:08;8.10;99.90
13426;DHT22;6785;57.918;12.530;2023-05-20T00:10:36;8.10;99.90
13426;DHT22;6785;57.918;12.530;2023-05-20T00:13:03;8.10;99.90
13426;DHT22;6785;57.918;12.530;2023-05-20T00:15:31;8.10;99.90
13426;DHT22;6785;57.918;12.530;2023-05-20T00:18:00;8.10;99.90
13426;DHT22;6785;57.918;12.530;2023-05-20T00:20:27;8.10;99.90
13426;DHT22;6785;57.918;12.530;2023-05-20T00:22:54;8.10;99.90
13426;DHT22;6785;57.918;12.530;2023-05-20T00:25:20;8.10;99.90
13426;DHT22;6785;57.918;12.530;2023-05-20T00:27:49;8.00;99.90
13426;DHT22;6785;57.918;12.530;2023-05-20T00:30:16;8.00;99.90
13426;DHT22;6785;57.918;12.530;2023-05-20T00:32:42;8.00;99.90
13426;DHT22;6785;57.918;12.530;2023-05-20T00:35:09;8.00;99.90
13426;DHT22;6785;57.918;12.530;2023-05-20T00:37:36;8.00;99.90
13426;DHT22;6785;57.918;12.530;2023-05-20T00:40:03;8.00;99.90
13426;DHT22;6785;57.918;12.530;2023-05-20T00:42:30;7.90;99.90
13426;DHT22;6785;57.918;12.530;2023-05-20T00:44:59;7.90;99.90
13426;DHT22;6785;57.918;12.530;2023-05-20T00:47:29;7.90;99.90
13426;DHT22;6785;57.918;12.530;2023-05-20T00:49:57;7.90;99.90
13426;DHT22;6785;57.918;12.530;2023-05-20T00:52:24;7.90;99.90
13426;DHT22;6785;57.918;12.530;2023-05-20T00:54:51;7.80;99.90
13426;DHT22;6785;57.918;12.530;2023-05-20T00:57:19;7.60;99.90
13426;DHT22;6785;57.918;12.530;2023-05-20T00:59:46;7.50;99.90
13426;DHT22;6785;57.918;12.530;2023-05-20T01:02:15;7.50;99.90
13426;DHT22;6785;57.918;12.530;2023-05-20T01:04:42;7.50;99.90
13426;DHT22;6785;57.918;12.530;2023-05-20T01:07:13;7.40;99.90
13426;DHT22;6785;57.918;12.530;2023-05-20T01:09:40;7.40;99.90
13426;DHT22;6785;57.918;12.530;2023-05-20T01:12:12;7.40;99.90
13426;DHT22;6785;57.918;12.530;2023-05-20T01:14:45;7.40;99.90
13426;DHT22;6785;57.918;12.530;2023-05-20T01:17:15;7.40;99.90
13426;DHT22;6785;57.918;12.530;2023-05-20T01:19:46;7.40;99.90
13426;DHT22;6785;57.918;12.530;2023-05-20T01:22:14;7.30;99.90
13426;DHT22;6785;57.918;12.530;2023-05-20T01:24:44;7.30;99.90
13426;DHT22;6785;57.918;12.530;2023-05-20T01:27:13;7.30;99.90
13426;DHT22;6785;57.918;12.530;2023-05-20T01:29:40;7.20;99.90
13426;DHT22;6785;57.918;12.530;2023-05-20T01:32:10;7.20;99.90
13426;DHT22;6785;57.918;12.530;2023-05-20T01:34:38;7.10;99.90
13426;DHT22;6785;57.918;12.530;2023-05-20T01:37:07;7.10;99.90
13426;DHT22;6785;57.918;12.530;2023-05-20T01:39:35;7.10;99.90
13426;DHT22;6785;57.918;12.530;2023-05-20T01:42:06;7.20;99.90
13426;DHT22;6785;57.918;12.530;2023-05-20T01:44:34;7.20;99.90
13426;DHT22;6785;57.918;12.530;2023-05-20T01:47:01;7.20;99.90
13426;DHT22;6785;57.918;12.530;2023-05-20T01:49:27;7.20;99.90
13426;DHT22;6785;57.918;12.530;2023-05-20T01:51:54;7.20;99.90
13426;DHT22;6785;57.918;12.530;2023-05-20T01:54:21;7.20;99.90
13426;DHT22;6785;57.918;12.530;2023-05-20T01:56:48;7.20;99.90
13426;DHT22;6785;57.918;12.530;2023-05-20T01:59:17;7.10;99.90
13426;DHT22;6785;57.918;12.530;2023-05-20T02:01:43;7.10;99.90
13426;DHT22;6785;57.918;12.530;2023-05-20T02:04:10;7.00;99.90
13426;DHT22;6785;57.918;12.530;2023-05-20T02:06:37;7.00;99.90
13426;DHT22;6785;57.918;12.530;2023-05-20T02:09:04;7.00;99.90
13426;DHT22;6785;57.918;12.530;2023-05-20T02:11:31;7.00;99.90
13426;DHT22;6785;57.918;12.530;2023-05-20T02:13:57;6.90;99.90
13426;DHT22;6785;57.918;12.530;2023-05-20T02:16:26;6.80;99.90
13426;DHT22;6785;57.918;12.530;2023-05-20T02:18:52;6.80;99.90
13426;DHT22;6785;57.918;12.530;2023-05-20T02:21:20;6.80;99.90
13426;DHT22;6785;57.918;12.530;2023-05-20T02:23:47;6.80;99.90
13426;DHT22;6785;57.918;12.530;2023-05-20T02:26:14;6.80;99.90
13426;DHT22;6785;57.918;12.530;2023-05-20T02:28:40;6.70;99.90
13426;DHT22;6785;57.918;12.530;2023-05-20T02:31:11;6.80;99.90
13426;DHT22;6785;57.918;12.530;2023-05-20T02:33:39;6.70;99.90
13426;DHT22;6785;57.918;12.530;2023-05-20T02:36:06;6.70;99.90
13426;DHT22;6785;57.918;12.530;2023-05-20T02:38:33;6.70;99.90
13426;DHT22;6785;57.918;12.530;2023-05-20T02:41:00;6.70;99.90
13426;DHT22;6785;57.918;12.530;2023-05-20T02:43:28;6.70;99.90
13426;DHT22;6785;57.918;12.530;2023-05-20T02:45:55;6.60;99.90
13426;DHT22;6785;57.918;12.530;2023-05-20T02:48:22;6.60;99.90
13426;DHT22;6785;57.918;12.530;2023-05-20T02:50:50;6.50;99.90
13426;DHT22;6785;57.918;12.530;2023-05-20T02:53:17;6.60;99.90
13426;DHT22;6785;57.918;12.530;2023-05-20T02:55:45;6.60;99.90
13426;DHT22;6785;57.918;12.530;2023-05-20T02:58:13;6.50;99.90
13426;DHT22;6785;57.918;12.530;2023-05-20T03:00:40;6.60;99.90
13426;DHT22;6785;57.918;12.530;2023-05-20T03:03:07;6.60;99.90
13426;DHT22;6785;57.918;12.530;2023-05-20T03:05:34;6.60;99.90
13426;DHT22;6785;57.918;12.530;2023-05-20T03:08:05;6.80;99.90
13426;DHT22;6785;57.918;12.530;2023-05-20T03:10:31;6.70;99.90
13426;DHT22;6785;57.918;12.530;2023-05-20T03:12:58;6.50;99.90
13426;DHT22;6785;57.918;12.530;2023-05-20T03:15:25;6.50;99.90
13426;DHT22;6785;57.918;12.530;2023-05-20T03:17:52;6.50;99.90
13426;DHT22;6785;57.918;12.530;2023-05-20T03:20:18;6.50;99.90
13426;DHT22;6785;57.918;12.530;2023-05-20T03:22:45;6.50;99.90
13426;DHT22;6785;57.918;12.530;2023-05-20T03:25:13;6.60;99.90
13426;DHT22;6785;57.918;12.530;2023-05-20T03:27:40;6.60;99.90
13426;DHT22;6785;57.918;12.530;2023-05-20T03:30:09;6.70;99.90
13426;DHT22;6785;57.918;12.530;2023-05-20T03:32:37;6.80;99.90
13426;DHT22;6785;57.918;12.530;2023-05-20T03:35:04;6.80;99.90
13426;DHT22;6785;57.918;12.530;2023-05-20T03:37:31;6.90;99.90
13426;DHT22;6785;57.918;12.530;2023-05-20T03:39:58;7.00;99.90
13426;DHT22;6785;57.918;12.530;2023-05-20T03:42:26;7.00;99.90
13426;DHT22;6785;57.918;12.530;2023-05-20T03:44:53;7.00;99.90
13426;DHT22;6785;57.918;12.530;2023-05-20T03:47:19;7.10;99.90
13426;DHT22;6785;57.918;12.530;2023-05-20T03:49:46;7.10;99.90
13426;DHT22;6785;57.918;12.530;2023-05-20T03:52:13;7.20;99.90
13426;DHT22;6785;57.918;12.530;2023-05-20T03:54:40;7.30;99.90
13426;DHT22;6785;57.918;12.530;2023-05-20T03:57:06;7.40;99.90
13426;DHT22;6785;57.918;12.530;2023-05-20T03:59:36;7.40;99.90
13426;DHT22;6785;57.918;12.530;2023-05-20T04:02:03;7.50;99.90
13426;DHT22;6785;57.918;12.530;2023-05-20T04:04:30;7.60;99.90
13426;DHT22;6785;57.918;12.530;2023-05-20T04:06:57;7.60;99.90
13426;DHT22;6785;57.918;12.530;2023-05-20T04:09:25;7.70;99.90
13426;DHT22;6785;57.918;12.530;2023-05-20T04:11:52;7.70;99.90
13426;DHT22;6785;57.918;12.530;2023-05-20T04:14:19;7.80;99.90
13426;DHT22;6785;57.918;12.530;2023-05-20T04:16:47;7.90;99.90
13426;DHT22;6785;57.918;12.530;2023-05-20T04:19:14;7.90;99.90
13426;DHT22;6785;57.918;12.530;2023-05-20T04:21:44;8.00;99.90
13426;DHT22;6785;57.918;12.530;2023-05-20T04:24:10;8.10;99.90
13426;DHT22;6785;57.918;12.530;2023-05-20T04:26:37;8.20;99.90
13426;DHT22;6785;57.918;12.530;2023-05-20T04:29:04;8.20;99.90
13426;DHT22;6785;57.918;12.530;2023-05-20T04:31:31;8.20;99.90
13426;DHT22;6785;57.918;12.530;2023-05-20T04:33:59;8.30;99.90
13426;DHT22;6785;57.918;12.530;2023-05-20T04:36:27;8.30;99.90
13426;DHT22;6785;57.918;12.530;2023-05-20T04:38:54;8.40;99.90
13426;DHT22;6785;57.918;12.530;2023-05-20T04:41:20;8.50;99.90
13426;DHT22;6785;57.918;12.530;2023-05-20T04:43:49;8.60;99.90
13426;DHT22;6785;57.918;12.530;2023-05-20T04:46:15;8.60;99.90
13426;DHT22;6785;57.918;12.530;2023-05-20T04:48:43;8.70;99.90
13426;DHT22;6785;57.918;12.530;2023-05-20T04:51:11;8.80;99.90
13426;DHT22;6785;57.918;12.530;2023-05-20T04:53:37;8.90;99.90
13426;DHT22;6785;57.918;12.530;2023-05-20T04:56:05;9.00;99.90
13426;DHT22;6785;57.918;12.530;2023-05-20T04:58:32;9.10;99.90
13426;DHT22;6785;57.918;12.530;2023-05-20T05:00:59;9.20;99.90
13426;DHT22;6785;57.918;12.530;2023-05-20T05:03:27;9.30;99.90
13426;DHT22;6785;57.918;12.530;2023-05-20T05:05:55;9.40;99.90
13426;DHT22;6785;57.918;12.530;2023-05-20T05:08:23;9.50;99.90
13426;DHT22;6785;57.918;12.530;2023-05-20T05:10:50;9.60;99.90
13426;DHT22;6785;57.918;12.530;2023-05-20T05:13:18;9.70;99.90
13426;DHT22;6785;57.918;12.530;2023-05-20T05:15:44;9.90;99.90
13426;DHT22;6785;57.918;12.530;2023-05-20T05:18:11;9.90;99.90
13426;DHT22;6785;57.918;12.530;2023-05-20T05:20:38;10.10;99.90
13426;DHT22;6785;57.918;12.530;2023-05-20T05:23:05;10.20;99.90
13426;DHT22;6785;57.918;12.530;2023-05-20T05:25:33;10.30;99.90
13426;DHT22;6785;57.918;12.530;2023-05-20T05:27:59;10.40;99.90
13426;DHT22;6785;57.918;12.530;2023-05-20T05:30:26;10.50;99.90
13426;DHT22;6785;57.918;12.530;2023-05-20T05:32:53;10.60;99.90
13426;DHT22;6785;57.918;12.530;2023-05-20T05:35:20;10.80;99.90
13426;DHT22;6785;57.918;12.530;2023-05-20T05:37:47;10.90;99.90
13426;DHT22;6785;57.918;12.530;2023-05-20T05:40:13;11.10;99.90
13426;DHT22;6785;57.918;12.530;2023-05-20T05:42:41;11.20;99.90
13426;DHT22;6785;57.918;12.530;2023-05-20T05:45:09;11.30;99.90
13426;DHT22;6785;57.918;12.530;2023-05-20T05:47:36;11.40;99.90
13426;DHT22;6785;57.918;12.530;2023-05-20T05:50:03;11.50;99.90
13426;DHT22;6785;57.918;12.530;2023-05-20T05:52:30;11.60;99.90
13426;DHT22;6785;57.918;12.530;2023-05-20T05:54:57;11.70;99.90
13426;DHT22;6785;57.918;12.530;2023-05-20T05:57:23;11.90;99.90
13426;DHT22;6785;57.918;12.530;2023-05-20T05:59:51;12.10;99.90
13426;DHT22;6785;57.918;12.530;2023-05-20T06:02:18;12.30;99.90
13426;DHT22;6785;57.918;12.530;2023-05-20T06:04:45;12.40;99.90
13426;DHT22;6785;57.918;12.530;2023-05-20T06:07:11;12.50;99.90
13426;DHT22;6785;57.918;12.530;2023-05-20T06:09:38;12.70;99.90
13426;DHT22;6785;57.918;12.530;2023-05-20T06:12:06;12.80;99.90
13426;DHT22;6785;57.918;12.530;2023-05-20T06:14:33;12.90;99.90
13426;DHT22;6785;57.918;12.530;2023-05-20T06:17:02;12.90;99.90
13426;DHT22;6785;57.918;12.530;2023-05-20T06:19:30;13.20;99.90
13426;DHT22;6785;57.918;12.530;2023-05-20T06:21:56;13.30;99.90
13426;DHT22;6785;57.918;12.530;2023-05-20T06:24:23;13.50;99.90
13426;DHT22;6785;57.918;12.530;2023-05-20T06:26:50;13.70;99.90
13426;DHT22;6785;57.918;12.530;2023-05-20T06:29:17;13.90;99.90
13426;DHT22;6785;57.918;12.530;2023-05-20T06:31:44;14.10;99.90
13426;DHT22;6785;57.918;12.530;2023-05-20T06:34:12;14.30;99.90
13426;DHT22;6785;57.918;12.530;2023-05-20T06:36:39;14.40;99.90
13426;DHT22;6785;57.918;12.530;2023-05-20T06:39:05;14.40;99.90
13426;DHT22;6785;57.918;12.530;2023-05-20T06:41:37;14.60;99.90
13426;DHT22;6785;57.918;12.530;2023-05-20T06:44:04;14.70;99.90
13426;DHT22;6785;57.918;12.530;2023-05-20T06:46:31;14.90;99.90
13426;DHT22;6785;57.918;12.530;2023-05-20T06:48:57;15.10;99.90
13426;DHT22;6785;57.918;12.530;2023-05-20T06:51:26;15.40;99.90
13426;DHT22;6785;57.918;12.530;2023-05-20T06:53:52;15.60;99.90
13426;DHT22;6785;57.918;12.530;2023-05-20T06:56:19;15.80;99.90
13426;DHT22;6785;57.918;12.530;2023-05-20T06:58:46;16.00;99.90
13426;DHT22;6785;57.918;12.530;2023-05-20T07:01:13;16.20;99.90
13426;DHT22;6785;57.918;12.530;2023-05-20T07:03:40;16.50;99.90
13426;DHT22;6785;57.918;12.530;2023-05-20T07:06:07;16.50;99.90
13426;DHT22;6785;57.918;12.530;2023-05-20T07:08:35;16.60;99.90
13426;DHT22;6785;57.918;12.530;2023-05-20T07:11:01;16.90;99.90
13426;DHT22;6785;57.918;12.530;2023-05-20T07:13:29;17.10;99.90
13426;DHT22;6785;57.918;12.530;2023-05-20T07:15:55;17.20;99.90
13426;DHT22;6785;57.918;12.530;2023-05-20T07:18:22;17.30;99.90
13426;DHT22;6785;57.918;12.530;2023-05-20T07:20:49;17.50;99.90
13426;DHT22;6785;57.918;12.530;2023-05-20T07:23:15;17.30;99.90
13426;DHT22;6785;57.918;12.530;2023-05-20T07:25:43;17.50;99.90
13426;DHT22;6785;57.918;12.530;2023-05-20T07:28:10;17.80;99.90
13426;DHT22;6785;57.918;12.530;2023-05-20T07:30:37;18.10;99.90
13426;DHT22;6785;57.918;12.530;2023-05-20T07:33:04;18.00;99.90
13426;DHT22;6785;57.918;12.530;2023-05-20T07:35:30;18.10;99.90
13426;DHT22;6785;57.918;12.530;2023-05-20T07:37:57;18.30;99.90
13426;DHT22;6785;57.918;12.530;2023-05-20T07:40:24;18.40;99.90
13426;DHT22;6785;57.918;12.530;2023-05-20T07:42:52;18.70;99.90
13426;DHT22;6785;57.918;12.530;2023-05-20T07:45:19;19.10;99.90
13426;DHT22;6785;57.918;12.530;2023-05-20T07:47:45;19.30;99.90
13426;DHT22;6785;57.918;12.530;2023-05-20T07:50:12;19.40;99.90
13426;DHT22;6785;57.918;12.530;2023-05-20T07:52:39;19.70;99.90
13426;DHT22;6785;57.918;12.530;2023-05-20T07:55:06;19.80;99.90
13426;DHT22;6785;57.918;12.530;2023-05-20T07:57:33;19.90;99.90
13426;DHT22;6785;57.918;12.530;2023-05-20T08:00:01;19.70;99.90
13426;DHT22;6785;57.918;12.530;2023-05-20T08:02:28;19.80;99.90
13426;DHT22;6785;57.918;12.530;2023-05-20T08:04:54;20.00;99.90
13426;DHT22;6785;57.918;12.530;2023-05-20T08:07:21;20.00;99.90
13426;DHT22;6785;57.918;12.530;2023-05-20T08:09:48;20.10;99.90
13426;DHT22;6785;57.918;12.530;2023-05-20T08:12:15;20.20;99.90
13426;DHT22;6785;57.918;12.530;2023-05-20T08:14:41;20.10;99.90
13426;DHT22;6785;57.918;12.530;2023-05-20T08:17:09;20.10;99.90
13426;DHT22;6785;57.918;12.530;2023-05-20T08:19:36;20.00;99.90
13426;DHT22;6785;57.918;12.530;2023-05-20T08:22:03;19.90;99.90
13426;DHT22;6785;57.918;12.530;2023-05-20T08:24:30;19.80;99.90
13426;DHT22;6785;57.918;12.530;2023-05-20T08:26:57;19.90;99.90
13426;DHT22;6785;57.918;12.530;2023-05-20T08:29:24;19.90;99.90
13426;DHT22;6785;57.918;12.530;2023-05-20T08:31:51;19.90;99.90
13426;DHT22;6785;57.918;12.530;2023-05-20T08:34:19;20.00;99.90
13426;DHT22;6785;57.918;12.530;2023-05-20T08:36:45;20.20;99.90
13426;DHT22;6785;57.918;12.530;2023-05-20T08:39:12;20.20;99.90
13426;DHT22;6785;57.918;12.530;2023-05-20T08:41:39;20.30;99.90
13426;DHT22;6785;57.918;12.530;2023-05-20T08:44:07;20.30;99.90
13426;DHT22;6785;57.918;12.530;2023-05-20T08:46:35;20.40;99.90
13426;DHT22;6785;57.918;12.530;2023-05-20T08:49:02;20.30;99.90
13426;DHT22;6785;57.918;12.530;2023-05-20T08:51:32;20.40;99.90
13426;DHT22;6785;57.918;12.530;2023-05-20T08:54:01;20.50;99.90
13426;DHT22;6785;57.918;12.530;2023-05-20T08:56:28;20.60;99.90
13426;DHT22;6785;57.918;12.530;2023-05-20T08:58:57;20.60;99.90
13426;DHT22;6785;57.918;12.530;2023-05-20T09:01:24;20.70;99.90
13426;DHT22;6785;57.918;12.530;2023-05-20T09:03:51;20.70;99.90
13426;DHT22;6785;57.918;12.530;2023-05-20T09:06:18;20.80;99.90
13426;DHT22;6785;57.918;12.530;2023-05-20T09:08:48;20.80;99.90
13426;DHT22;6785;57.918;12.530;2023-05-20T09:11:15;20.80;99.90
13426;DHT22;6785;57.918;12.530;2023-05-20T09:13:42;20.80;99.90
13426;DHT22;6785;57.918;12.530;2023-05-20T09:16:09;20.90;99.90
13426;DHT22;6785;57.918;12.530;2023-05-20T09:18:37;20.80;99.90
13426;DHT22;6785;57.918;12.530;2023-05-20T09:21:05;20.60;99.90
13426;DHT22;6785;57.918;12.530;2023-05-20T09:23:32;20.70;99.90
13426;DHT22;6785;57.918;12.530;2023-05-20T09:26:01;20.80;99.90
13426;DHT22;6785;57.918;12.530;2023-05-20T09:28:27;20.90;99.90
13426;DHT22;6785;57.918;12.530;2023-05-20T09:30:57;21.00;99.90
13426;DHT22;6785;57.918;12.530;2023-05-20T09:33:27;21.10;99.90
13426;DHT22;6785;57.918;12.530;2023-05-20T09:36:02;20.90;99.90
13426;DHT22;6785;57.918;12.530;2023-05-20T09:38:31;20.90;99.70
13426;DHT22;6785;57.918;12.530;2023-05-20T09:41:05;21.00;99.90
13426;DHT22;6785;57.918;12.530;2023-05-20T09:43:33;21.20;99.90
13426;DHT22;6785;57.918;12.530;2023-05-20T09:46:01;21.00;99.30
13426;DHT22;6785;57.918;12.530;2023-05-20T09:48:29;20.90;99.90
13426;DHT22;6785;57.918;12.530;2023-05-20T09:50:56;21.00;99.90
13426;DHT22;6785;57.918;12.530;2023-05-20T09:53:26;21.10;99.90
13426;DHT22;6785;57.918;12.530;2023-05-20T09:55:54;21.20;99.10
13426;DHT22;6785;57.918;12.530;2023-05-20T09:58:23;21.20;98.00
13426;DHT22;6785;57.918;12.530;2023-05-20T10:00:50;21.20;99.20
13426;DHT22;6785;57.918;12.530;2023-05-20T10:03:20;21.40;99.40
13426;DHT22;6785;57.918;12.530;2023-05-20T10:05:57;21.40;99.00
13426;DHT22;6785;57.918;12.530;2023-05-20T10:08:44;21.40;98.70
13426;DHT22;6785;57.918;12.530;2023-05-20T10:11:21;21.40;99.20
13426;DHT22;6785;57.918;12.530;2023-05-20T10:14:05;21.50;98.20
13426;DHT22;6785;57.918;12.530;2023-05-20T10:16:45;21.50;98.10
13426;DHT22;6785;57.918;12.530;2023-05-20T10:19:26;21.50;96.40
13426;DHT22;6785;57.918;12.530;2023-05-20T10:21:58;21.50;98.00
13426;DHT22;6785;57.918;12.530;2023-05-20T10:24:30;21.50;97.60
13426;DHT22;6785;57.918;12.530;2023-05-20T10:26:58;21.60;98.40
13426;DHT22;6785;57.918;12.530;2023-05-20T10:29:27;21.50;97.30
13426;DHT22;6785;57.918;12.530;2023-05-20T10:31:54;21.30;98.40
13426;DHT22;6785;57.918;12.530;2023-05-20T10:34:22;21.10;99.50
13426;DHT22;6785;57.918;12.530;2023-05-20T10:36:57;20.80;97.90
13426;DHT22;6785;57.918;12.530;2023-05-20T10:39:26;20.40;99.00
13426;DHT22;6785;57.918;12.530;2023-05-20T10:42:04;20.20;99.00
13426;DHT22;6785;57.918;12.530;2023-05-20T10:44:41;20.30;99.10
13426;DHT22;6785;57.918;12.530;2023-05-20T10:47:08;20.50;99.90
13426;DHT22;6785;57.918;12.530;2023-05-20T10:49:38;20.80;98.90
13426;DHT22;6785;57.918;12.530;2023-05-20T10:52:07;21.00;98.70
13426;DHT22;6785;57.918;12.530;2023-05-20T10:54:35;21.40;98.90
13426;DHT22;6785;57.918;12.530;2023-05-20T10:57:06;21.60;97.30
13426;DHT22;6785;57.918;12.530;2023-05-20T10:59:33;21.80;97.90
13426;DHT22;6785;57.918;12.530;2023-05-20T11:02:03;21.90;97.70
13426;DHT22;6785;57.918;12.530;2023-05-20T11:04:31;22.00;97.50
13426;DHT22;6785;57.918;12.530;2023-05-20T11:06:58;22.00;97.30
13426;DHT22;6785;57.918;12.530;2023-05-20T11:09:25;22.10;99.00
13426;DHT22;6785;57.918;12.530;2023-05-20T11:11:52;21.90;98.60
13426;DHT22;6785;57.918;12.530;2023-05-20T11:14:20;21.80;97.30
13426;DHT22;6785;57.918;12.530;2023-05-20T11:16:50;21.60;96.40
13426;DHT22;6785;57.918;12.530;2023-05-20T11:19:19;21.40;95.60
13426;DHT22;6785;57.918;12.530;2023-05-20T11:21:46;21.10;96.00
13426;DHT22;6785;57.918;12.530;2023-05-20T11:24:20;21.10;96.70
13426;DHT22;6785;57.918;12.530;2023-05-20T11:26:47;21.30;95.30
13426;DHT22;6785;57.918;12.530;2023-05-20T11:29:14;21.30;95.30
13426;DHT22;6785;57.918;12.530;2023-05-20T11:31:41;21.60;94.60
13426;DHT22;6785;57.918;12.530;2023-05-20T11:34:08;21.90;94.60
13426;DHT22;6785;57.918;12.530;2023-05-20T11:36:40;22.00;93.90
13426;DHT22;6785;57.918;12.530;2023-05-20T11:39:09;22.00;94.20
13426;DHT22;6785;57.918;12.530;2023-05-20T11:41:35;21.70;94.80
13426;DHT22;6785;57.918;12.530;2023-05-20T11:44:03;21.60;94.00
13426;DHT22;6785;57.918;12.530;2023-05-20T11:46:30;21.40;95.00
13426;DHT22;6785;57.918;12.530;2023-05-20T11:48:57;21.60;96.30
13426;DHT22;6785;57.918;12.530;2023-05-20T11:51:26;21.80;94.30
13426;DHT22;6785;57.918;12.530;2023-05-20T11:53:58;22.00;94.10
13426;DHT22;6785;57.918;12.530;2023-05-20T11:56:27;22.00;94.50
13426;DHT22;6785;57.918;12.530;2023-05-20T11:58:56;22.20;94.00
13426;DHT22;6785;57.918;12.530;2023-05-20T12:01:22;22.40;95.20
13426;DHT22;6785;57.918;12.530;2023-05-20T12:03:49;22.60;92.70
13426;DHT22;6785;57.918;12.530;2023-05-20T12:06:16;22.50;92.80
13426;DHT22;6785;57.918;12.530;2023-05-20T12:08:43;22.50;93.30
13426;DHT22;6785;57.918;12.530;2023-05-20T12:11:12;22.20;92.00
13426;DHT22;6785;57.918;12.530;2023-05-20T12:13:39;22.30;93.20
13426;DHT22;6785;57.918;12.530;2023-05-20T12:16:05;22.40;93.30
13426;DHT22;6785;57.918;12.530;2023-05-20T12:18:32;22.50;92.80
13426;DHT22;6785;57.918;12.530;2023-05-20T12:20:59;22.50;93.10
13426;DHT22;6785;57.918;12.530;2023-05-20T12:23:26;22.50;92.20
13426;DHT22;6785;57.918;12.530;2023-05-20T12:25:55;22.40;92.80
13426;DHT22;6785;57.918;12.530;2023-05-20T12:28:23;22.20;93.70
13426;DHT22;6785;57.918;12.530;2023-05-20T12:30:49;22.00;92.60
13426;DHT22;6785;57.918;12.530;2023-05-20T12:33:16;21.80;93.50
13426;DHT22;6785;57.918;12.530;2023-05-20T12:35:45;21.60;93.90
13426;DHT22;6785;57.918;12.530;2023-05-20T12:38:11;21.70;93.10
13426;DHT22;6785;57.918;12.530;2023-05-20T12:40:38;22.00;93.10
13426;DHT22;6785;57.918;12.530;2023-05-20T12:43:05;22.30;93.90
13426;DHT22;6785;57.918;12.530;2023-05-20T12:45:33;22.50;93.40
13426;DHT22;6785;57.918;12.530;2023-05-20T12:48:00;22.70;92.10
13426;DHT22;6785;57.918;12.530;2023-05-20T12:50:27;22.70;93.30
13426;DHT22;6785;57.918;12.530;2023-05-20T12:52:54;22.60;92.60
13426;DHT22;6785;57.918;12.530;2023-05-20T12:55:21;22.40;92.70
13426;DHT22;6785;57.918;12.530;2023-05-20T12:57:48;22.10;94.00
13426;DHT22;6785;57.918;12.530;2023-05-20T13:00:16;21.90;93.40
13426;DHT22;6785;57.918;12.530;2023-05-20T13:02:44;21.70;93.70
13426;DHT22;6785;57.918;12.530;2023-05-20T13:05:10;21.50;95.90
13426;DHT22;6785;57.918;12.530;2023-05-20T13:07:37;21.40;94.40
13426;DHT22;6785;57.918;12.530;2023-05-20T13:10:05;21.40;97.20
13426;DHT22;6785;57.918;12.530;2023-05-20T13:12:33;21.70;94.90
13426;DHT22;6785;57.918;12.530;2023-05-20T13:15:00;22.10;94.30
13426;DHT22;6785;57.918;12.530;2023-05-20T13:17:27;22.30;93.50
13426;DHT22;6785;57.918;12.530;2023-05-20T13:19:55;22.50;93.70
13426;DHT22;6785;57.918;12.530;2023-05-20T13:22:22;22.70;92.90
13426;DHT22;6785;57.918;12.530;2023-05-20T13:24:49;22.90;92.80
13426;DHT22;6785;57.918;12.530;2023-05-20T13:27:16;23.00;93.60
13426;DHT22;6785;57.918;12.530;2023-05-20T13:29:42;23.20;92.40
13426;DHT22;6785;57.918;12.530;2023-05-20T13:32:09;23.60;93.20
13426;DHT22;6785;57.918;12.530;2023-05-20T13:34:36;23.50;91.40
13426;DHT22;6785;57.918;12.530;2023-05-20T13:37:05;23.50;92.30
13426;DHT22;6785;57.918;12.530;2023-05-20T13:39:31;23.50;91.80
13426;DHT22;6785;57.918;12.530;2023-05-20T13:41:58;23.40;91.30
13426;DHT22;6785;57.918;12.530;2023-05-20T13:44:25;23.20;92.30
13426;DHT22;6785;57.918;12.530;2023-05-20T13:46:52;23.10;90.60
13426;DHT22;6785;57.918;12.530;2023-05-20T13:49:19;22.80;91.70
13426;DHT22;6785;57.918;12.530;2023-05-20T13:51:45;22.50;91.80
13426;DHT22;6785;57.918;12.530;2023-05-20T13:54:13;22.30;92.50
13426;DHT22;6785;57.918;12.530;2023-05-20T13:56:43;22.10;92.80
13426;DHT22;6785;57.918;12.530;2023-05-20T13:59:10;22.20;93.80
13426;DHT22;6785;57.918;12.530;2023-05-20T14:01:36;22.30;92.20
13426;DHT22;6785;57.918;12.530;2023-05-20T14:04:03;22.50;92.80
13426;DHT22;6785;57.918;12.530;2023-05-20T14:06:30;22.60;91.50
13426;DHT22;6785;57.918;12.530;2023-05-20T14:08:57;22.60;90.80
13426;DHT22;6785;57.918;12.530;2023-05-20T14:11:25;22.60;90.80
13426;DHT22;6785;57.918;12.530;2023-05-20T14:13:52;22.70;91.10
13426;DHT22;6785;57.918;12.530;2023-05-20T14:16:18;22.80;91.90
13426;DHT22;6785;57.918;12.530;2023-05-20T14:18:45;22.80;91.30
13426;DHT22;6785;57.918;12.530;2023-05-20T14:21:12;22.80;90.50
13426;DHT22;6785;57.918;12.530;2023-05-20T14:23:39;22.90;90.20
13426;DHT22;6785;57.918;12.530;2023-05-20T14:26:08;22.80;90.10
13426;DHT22;6785;57.918;12.530;2023-05-20T14:28:36;22.70;90.40
13426;DHT22;6785;57.918;12.530;2023-05-20T14:31:03;22.70;90.60
13426;DHT22;6785;57.918;12.530;2023-05-20T14:33:30;22.50;88.10
13426;DHT22;6785;57.918;12.530;2023-05-20T14:35:57;22.30;88.80
13426;DHT22;6785;57.918;12.530;2023-05-20T14:38:24;22.40;90.20
13426;DHT22;6785;57.918;12.530;2023-05-20T14:40:51;22.50;90.60
13426;DHT22;6785;57.918;12.530;2023-05-20T14:43:18;22.60;91.00
13426;DHT22;6785;57.918;12.530;2023-05-20T14:45:47;22.50;91.10
13426;DHT22;6785;57.918;12.530;2023-05-20T14:48:13;22.60;91.50
13426;DHT22;6785;57.918;12.530;2023-05-20T14:50:40;22.50;90.70
13426;DHT22;6785;57.918;12.530;2023-05-20T14:53:07;22.50;90.10
13426;DHT22;6785;57.918;12.530;2023-05-20T14:55:33;22.40;90.30
13426;DHT22;6785;57.918;12.530;2023-05-20T14:58:00;22.30;90.40
13426;DHT22;6785;57.918;12.530;2023-05-20T15:00:27;22.20;93.20
13426;DHT22;6785;57.918;12.530;2023-05-20T15:02:55;22.10;91.80
13426;DHT22;6785;57.918;12.530;2023-05-20T15:05:22;22.10;91.20
13426;DHT22;6785;57.918;12.530;2023-05-20T15:07:49;22.00;90.40
13426;DHT22;6785;57.918;12.530;2023-05-20T15:10:16;22.00;92.90
13426;DHT22;6785;57.918;12.530;2023-05-20T15:12:44;21.90;91.90
13426;DHT22;6785;57.918;12.530;2023-05-20T15:15:11;21.80;91.20
13426;DHT22;6785;57.918;12.530;2023-05-20T15:17:37;21.80;91.40
13426;DHT22;6785;57.918;12.530;2023-05-20T15:20:07;21.70;93.10
13426;DHT22;6785;57.918;12.530;2023-05-20T15:22:33;21.50;91.90
13426;DHT22;6785;57.918;12.530;2023-05-20T15:25:00;21.50;92.30
13426;DHT22;6785;57.918;12.530;2023-05-20T15:27:27;21.40;92.60
13426;DHT22;6785;57.918;12.530;2023-05-20T15:29:54;21.40;91.40
13426;DHT22;6785;57.918;12.530;2023-05-20T15:32:20;21.40;91.60
13426;DHT22;6785;57.918;12.530;2023-05-20T15:34:47;21.30;91.50
13426;DHT22;6785;57.918;12.530;2023-05-20T15:37:15;21.30;91.30